sensor_id;sensor_type;location;lat;lon;timestamp;P1;durP1;ratioP1;P2;durP2;ratioP2
22144;SDS011;11238;48.730;11.566;2023-07-20T00:02:09;4.43;;;2.92;;
22144;SDS011;11238;48.730;11.566;2023-07-20T00:04:34;4.60;;;2.90;;
22144;SDS011;11238;48.730;11.566;2023-07-20T00:07:00;5.43;;;2.72;;
22144;SDS011;11238;48.730;11.566;2023-07-20T00:09:27;5.97;;;3.05;;
22144;SDS011;11238;48.730;11.566;2023-07-20T00:11:53;4.63;;;2.88;;
22144;SDS011;11238;48.730;11.566;2023-07-20T00:14:19;5.47;;;3.00;;
22144;SDS011;11238;48.730;11.566;2023-07-20T00:16:45;10.68;;;3.38;;
22144;SDS011;11238;48.730;11.566;2023-07-20T00:19:12;4.10;;;2.90;;
22144;SDS011;11238;48.730;11.566;2023-07-20T00:21:38;7.25;;;2.85;;
22144;SDS011;11238;48.730;11.566;2023-07-20T00:24:08;5.15;;;3.20;;
22144;SDS011;11238;48.730;11.566;2023-07-20T00:26:34;5.45;;;2.72;;
22144;SDS011;11238;48.730;11.566;2023-07-20T00:29:00;4.72;;;3.20;;
22144;SDS011;11238;48.730;11.566;2023-07-20T00:31:26;6.03;;;2.88;;
22144;SDS011;11238;48.730;11.566;2023-07-20T00:33:52;5.53;;;2.83;;
22144;SDS011;11238;48.730;11.566;2023-07-20T00:36:18;9.77;;;3.00;;
22144;SDS011;11238;48.730;11.566;2023-07-20T00:38:43;8.85;;;3.08;;
22144;SDS011;11238;48.730;11.566;2023-07-20T00:41:09;4.45;;;2.88;;
22144;SDS011;11238;48.730;11.566;2023-07-20T00:43:35;7.13;;;3.00;;
22144;SDS011;11238;48.730;11.566;2023-07-20T00:46:01;6.05;;;3.22;;
22144;SDS011;11238;48.730;11.566;2023-07-20T00:48:28;7.05;;;2.92;;
22144;SDS011;11238;48.730;11.566;2023-07-20T00:50:58;3.80;;;2.70;;
22144;SDS011;11238;48.730;11.566;2023-07-20T00:53:26;4.55;;;2.90;;
22144;SDS011;11238;48.730;11.566;2023-07-20T00:55:52;4.30;;;2.83;;
22144;SDS011;11238;48.730;11.566;2023-07-20T00:58:18;4.55;;;3.30;;
22144;SDS011;11238;48.730;11.566;2023-07-20T01:00:44;6.47;;;3.30;;
22144;SDS011;11238;48.730;11.566;2023-07-20T01:03:11;6.50;;;3.15;;
22144;SDS011;11238;48.730;11.566;2023-07-20T01:06:23;4.90;;;3.00;;
22144;SDS011;11238;48.730;11.566;2023-07-20T01:08:33;4.55;;;3.03;;
22144;SDS011;11238;48.730;11.566;2023-07-20T01:14:04;3.65;;;3.00;;
22144;SDS011;11238;48.730;11.566;2023-07-20T01:16:30;5.13;;;3.08;;
22144;SDS011;11238;48.730;11.566;2023-07-20T01:18:57;4.93;;;3.00;;
22144;SDS011;11238;48.730;11.566;2023-07-20T01:21:26;3.58;;;3.03;;
22144;SDS011;11238;48.730;11.566;2023-07-20T01:24:13;4.75;;;2.90;;
22144;SDS011;11238;48.730;11.566;2023-07-20T01:26:53;4.95;;;3.20;;
22144;SDS011;11238;48.730;11.566;2023-07-20T01:32:42;6.00;;;3.20;;
22144;SDS011;11238;48.730;11.566;2023-07-20T01:35:10;9.77;;;3.42;;
22144;SDS011;11238;48.730;11.566;2023-07-20T01:37:39;5.18;;;3.10;;
22144;SDS011;11238;48.730;11.566;2023-07-20T01:40:08;4.53;;;2.88;;
22144;SDS011;11238;48.730;11.566;2023-07-20T01:42:35;6.07;;;2.67;;
22144;SDS011;11238;48.730;11.566;2023-07-20T01:45:01;4.32;;;2.80;;
22144;SDS011;11238;48.730;11.566;2023-07-20T01:47:27;4.63;;;2.70;;
22144;SDS011;11238;48.730;11.566;2023-07-20T01:49:53;4.88;;;2.95;;
22144;SDS011;11238;48.730;11.566;2023-07-20T01:52:19;5.35;;;3.22;;
22144;SDS011;11238;48.730;11.566;2023-07-20T01:54:45;6.50;;;3.05;;
22144;SDS011;11238;48.730;11.566;2023-07-20T01:57:11;5.82;;;3.10;;
22144;SDS011;11238;48.730;11.566;2023-07-20T01:59:37;5.38;;;3.25;;
22144;SDS011;11238;48.730;11.566;2023-07-20T02:02:03;5.93;;;3.20;;
22144;SDS011;11238;48.730;11.566;2023-07-20T02:04:29;4.38;;;2.90;;
22144;SDS011;11238;48.730;11.566;2023-07-20T02:06:55;5.68;;;3.33;;
22144;SDS011;11238;48.730;11.566;2023-07-20T02:09:22;6.90;;;3.40;;
22144;SDS011;11238;48.730;11.566;2023-07-20T02:11:48;4.80;;;3.30;;
22144;SDS011;11238;48.730;11.566;2023-07-20T02:14:14;5.13;;;3.05;;
22144;SDS011;11238;48.730;11.566;2023-07-20T02:16:40;6.28;;;3.10;;
22144;SDS011;11238;48.730;11.566;2023-07-20T02:19:06;6.55;;;3.17;;
22144;SDS011;11238;48.730;11.566;2023-07-20T02:21:32;5.43;;;3.22;;
22144;SDS011;11238;48.730;11.566;2023-07-20T02:23:58;8.65;;;3.60;;
22144;SDS011;11238;48.730;11.566;2023-07-20T02:26:24;4.90;;;3.03;;
22144;SDS011;11238;48.730;11.566;2023-07-20T02:28:50;4.32;;;3.10;;
22144;SDS011;11238;48.730;11.566;2023-07-20T02:31:17;6.20;;;3.25;;
22144;SDS011;11238;48.730;11.566;2023-07-20T02:33:42;4.03;;;2.83;;
22144;SDS011;11238;48.730;11.566;2023-07-20T02:36:08;10.55;;;3.10;;
22144;SDS011;11238;48.730;11.566;2023-07-20T02:38:34;5.20;;;3.28;;
22144;SDS011;11238;48.730;11.566;2023-07-20T02:41:00;4.38;;;2.85;;
22144;SDS011;11238;48.730;11.566;2023-07-20T02:43:25;5.15;;;2.97;;
22144;SDS011;11238;48.730;11.566;2023-07-20T02:45:52;5.50;;;3.13;;
22144;SDS011;11238;48.730;11.566;2023-07-20T02:48:18;5.47;;;3.08;;
22144;SDS011;11238;48.730;11.566;2023-07-20T02:50:44;6.53;;;3.03;;
22144;SDS011;11238;48.730;11.566;2023-07-20T02:53:10;4.55;;;2.75;;
22144;SDS011;11238;48.730;11.566;2023-07-20T02:55:36;4.25;;;2.33;;
22144;SDS011;11238;48.730;11.566;2023-07-20T02:58:01;5.53;;;2.80;;
22144;SDS011;11238;48.730;11.566;2023-07-20T03:00:27;4.35;;;2.58;;
22144;SDS011;11238;48.730;11.566;2023-07-20T03:02:56;5.35;;;2.90;;
22144;SDS011;11238;48.730;11.566;2023-07-20T03:05:23;4.35;;;2.63;;
22144;SDS011;11238;48.730;11.566;2023-07-20T03:07:53;5.20;;;2.67;;
22144;SDS011;11238;48.730;11.566;2023-07-20T03:10:20;3.70;;;2.20;;
22144;SDS011;11238;48.730;11.566;2023-07-20T03:12:46;4.05;;;2.30;;
22144;SDS011;11238;48.730;11.566;2023-07-20T03:15:12;3.58;;;2.33;;
22144;SDS011;11238;48.730;11.566;2023-07-20T03:17:38;7.03;;;2.83;;
22144;SDS011;11238;48.730;11.566;2023-07-20T03:20:04;4.65;;;2.35;;
22144;SDS011;11238;48.730;11.566;2023-07-20T03:22:34;4.18;;;2.63;;
22144;SDS011;11238;48.730;11.566;2023-07-20T03:25:00;3.97;;;2.50;;
22144;SDS011;11238;48.730;11.566;2023-07-20T03:27:26;4.95;;;2.58;;
22144;SDS011;11238;48.730;11.566;2023-07-20T03:29:54;5.70;;;2.15;;
22144;SDS011;11238;48.730;11.566;2023-07-20T03:32:20;6.95;;;2.17;;
22144;SDS011;11238;48.730;11.566;2023-07-20T03:34:46;6.35;;;3.08;;
22144;SDS011;11238;48.730;11.566;2023-07-20T03:37:13;6.03;;;2.30;;
22144;SDS011;11238;48.730;11.566;2023-07-20T03:39:39;5.90;;;2.42;;
22144;SDS011;11238;48.730;11.566;2023-07-20T03:42:06;3.40;;;2.10;;
22144;SDS011;11238;48.730;11.566;2023-07-20T03:44:32;6.40;;;2.38;;
22144;SDS011;11238;48.730;11.566;2023-07-20T03:46:58;5.50;;;2.42;;
22144;SDS011;11238;48.730;11.566;2023-07-20T03:49:24;4.70;;;2.20;;
22144;SDS011;11238;48.730;11.566;2023-07-20T03:51:50;3.85;;;2.10;;
22144;SDS011;11238;48.730;11.566;2023-07-20T03:54:16;5.03;;;2.13;;
22144;SDS011;11238;48.730;11.566;2023-07-20T03:56:42;7.25;;;2.58;;
22144;SDS011;11238;48.730;11.566;2023-07-20T03:59:08;6.95;;;2.38;;
22144;SDS011;11238;48.730;11.566;2023-07-20T04:01:34;3.72;;;2.25;;
22144;SDS011;11238;48.730;11.566;2023-07-20T04:04:05;4.00;;;2.17;;
22144;SDS011;11238;48.730;11.566;2023-07-20T04:06:32;5.07;;;2.10;;
22144;SDS011;11238;48.730;11.566;2023-07-20T04:08:58;4.45;;;2.40;;
22144;SDS011;11238;48.730;11.566;2023-07-20T04:11:24;5.03;;;2.20;;
22144;SDS011;11238;48.730;11.566;2023-07-20T04:13:50;5.35;;;2.10;;
22144;SDS011;11238;48.730;11.566;2023-07-20T04:16:16;4.90;;;2.40;;
22144;SDS011;11238;48.730;11.566;2023-07-20T04:18:42;5.22;;;2.53;;
22144;SDS011;11238;48.730;11.566;2023-07-20T04:21:07;5.50;;;1.98;;
22144;SDS011;11238;48.730;11.566;2023-07-20T04:23:37;3.08;;;2.30;;
22144;SDS011;11238;48.730;11.566;2023-07-20T04:26:03;5.55;;;2.20;;
22144;SDS011;11238;48.730;11.566;2023-07-20T04:28:32;5.32;;;1.98;;
22144;SDS011;11238;48.730;11.566;2023-07-20T04:31:14;2.80;;;2.17;;
22144;SDS011;11238;48.730;11.566;2023-07-20T04:33:41;5.28;;;2.30;;
22144;SDS011;11238;48.730;11.566;2023-07-20T04:36:07;6.90;;;2.42;;
22144;SDS011;11238;48.730;11.566;2023-07-20T04:38:35;5.28;;;3.25;;
22144;SDS011;11238;48.730;11.566;2023-07-20T04:41:13;3.75;;;1.90;;
22144;SDS011;11238;48.730;11.566;2023-07-20T04:43:44;7.60;;;2.58;;
22144;SDS011;11238;48.730;11.566;2023-07-20T04:46:13;4.13;;;2.00;;
22144;SDS011;11238;48.730;11.566;2023-07-20T04:48:40;5.38;;;2.45;;
22144;SDS011;11238;48.730;11.566;2023-07-20T04:51:06;3.97;;;1.90;;
22144;SDS011;11238;48.730;11.566;2023-07-20T04:53:32;5.18;;;2.20;;
22144;SDS011;11238;48.730;11.566;2023-07-20T04:55:58;7.13;;;2.25;;
22144;SDS011;11238;48.730;11.566;2023-07-20T04:58:24;2.58;;;2.10;;
22144;SDS011;11238;48.730;11.566;2023-07-20T05:00:52;3.78;;;1.95;;
22144;SDS011;11238;48.730;11.566;2023-07-20T05:03:18;2.90;;;2.00;;
22144;SDS011;11238;48.730;11.566;2023-07-20T05:05:46;4.97;;;2.42;;
22144;SDS011;11238;48.730;11.566;2023-07-20T05:08:13;6.25;;;2.10;;
22144;SDS011;11238;48.730;11.566;2023-07-20T05:10:39;2.72;;;1.80;;
22144;SDS011;11238;48.730;11.566;2023-07-20T05:13:04;2.97;;;2.08;;
22144;SDS011;11238;48.730;11.566;2023-07-20T05:15:32;8.07;;;2.33;;
22144;SDS011;11238;48.730;11.566;2023-07-20T05:18:00;8.02;;;2.35;;
22144;SDS011;11238;48.730;11.566;2023-07-20T05:20:26;3.80;;;1.95;;
22144;SDS011;11238;48.730;11.566;2023-07-20T05:22:53;3.20;;;2.20;;
22144;SDS011;11238;48.730;11.566;2023-07-20T05:25:19;4.95;;;2.10;;
22144;SDS011;11238;48.730;11.566;2023-07-20T05:27:48;5.20;;;2.10;;
22144;SDS011;11238;48.730;11.566;2023-07-20T05:30:14;5.57;;;2.10;;
22144;SDS011;11238;48.730;11.566;2023-07-20T05:32:39;4.63;;;1.98;;
22144;SDS011;11238;48.730;11.566;2023-07-20T05:35:06;12.90;;;2.00;;
22144;SDS011;11238;48.730;11.566;2023-07-20T05:37:32;2.35;;;1.75;;
22144;SDS011;11238;48.730;11.566;2023-07-20T05:39:58;5.28;;;2.05;;
22144;SDS011;11238;48.730;11.566;2023-07-20T05:42:24;4.18;;;2.10;;
22144;SDS011;11238;48.730;11.566;2023-07-20T05:44:50;5.35;;;2.40;;
22144;SDS011;11238;48.730;11.566;2023-07-20T05:47:18;5.35;;;2.00;;
22144;SDS011;11238;48.730;11.566;2023-07-20T05:49:43;5.20;;;2.08;;
22144;SDS011;11238;48.730;11.566;2023-07-20T05:52:09;8.65;;;2.83;;
22144;SDS011;11238;48.730;11.566;2023-07-20T05:54:35;6.18;;;1.98;;
22144;SDS011;11238;48.730;11.566;2023-07-20T05:57:00;5.68;;;2.30;;
22144;SDS011;11238;48.730;11.566;2023-07-20T05:59:27;6.07;;;2.85;;
22144;SDS011;11238;48.730;11.566;2023-07-20T06:01:54;6.22;;;2.40;;
22144;SDS011;11238;48.730;11.566;2023-07-20T06:04:20;4.13;;;2.08;;
22144;SDS011;11238;48.730;11.566;2023-07-20T06:06:46;4.03;;;2.20;;
22144;SDS011;11238;48.730;11.566;2023-07-20T06:09:13;6.03;;;2.20;;
22144;SDS011;11238;48.730;11.566;2023-07-20T06:11:39;3.63;;;2.05;;
22144;SDS011;11238;48.730;11.566;2023-07-20T06:14:05;6.07;;;2.67;;
22144;SDS011;11238;48.730;11.566;2023-07-20T06:16:32;3.20;;;2.10;;
22144;SDS011;11238;48.730;11.566;2023-07-20T06:18:59;6.82;;;2.97;;
22144;SDS011;11238;48.730;11.566;2023-07-20T06:21:25;2.63;;;2.05;;
22144;SDS011;11238;48.730;11.566;2023-07-20T06:23:51;5.88;;;2.30;;
22144;SDS011;11238;48.730;11.566;2023-07-20T06:26:17;3.53;;;2.33;;
22144;SDS011;11238;48.730;11.566;2023-07-20T06:28:45;6.20;;;2.20;;
22144;SDS011;11238;48.730;11.566;2023-07-20T06:31:11;4.43;;;2.30;;
22144;SDS011;11238;48.730;11.566;2023-07-20T06:33:37;3.85;;;2.35;;
22144;SDS011;11238;48.730;11.566;2023-07-20T06:36:03;5.28;;;2.35;;
22144;SDS011;11238;48.730;11.566;2023-07-20T06:38:29;10.20;;;2.42;;
22144;SDS011;11238;48.730;11.566;2023-07-20T06:40:55;5.78;;;2.03;;
22144;SDS011;11238;48.730;11.566;2023-07-20T06:43:24;5.70;;;2.33;;
22144;SDS011;11238;48.730;11.566;2023-07-20T06:45:53;8.82;;;2.45;;
22144;SDS011;11238;48.730;11.566;2023-07-20T06:48:19;6.70;;;2.45;;
22144;SDS011;11238;48.730;11.566;2023-07-20T06:50:45;6.00;;;2.20;;
22144;SDS011;11238;48.730;11.566;2023-07-20T06:53:12;8.38;;;2.20;;
22144;SDS011;11238;48.730;11.566;2023-07-20T06:55:38;5.85;;;2.28;;
22144;SDS011;11238;48.730;11.566;2023-07-20T06:58:04;3.53;;;2.35;;
22144;SDS011;11238;48.730;11.566;2023-07-20T07:00:30;6.32;;;2.28;;
22144;SDS011;11238;48.730;11.566;2023-07-20T07:02:56;10.65;;;2.40;;
22144;SDS011;11238;48.730;11.566;2023-07-20T07:05:22;8.18;;;2.38;;
22144;SDS011;11238;48.730;11.566;2023-07-20T07:07:48;4.82;;;2.55;;
22144;SDS011;11238;48.730;11.566;2023-07-20T07:10:14;4.10;;;2.42;;
22144;SDS011;11238;48.730;11.566;2023-07-20T07:12:40;5.57;;;2.35;;
22144;SDS011;11238;48.730;11.566;2023-07-20T07:15:06;9.43;;;2.50;;
22144;SDS011;11238;48.730;11.566;2023-07-20T07:17:33;8.60;;;2.30;;
22144;SDS011;11238;48.730;11.566;2023-07-20T07:19:58;8.75;;;2.38;;
22144;SDS011;11238;48.730;11.566;2023-07-20T07:22:24;5.85;;;2.30;;
22144;SDS011;11238;48.730;11.566;2023-07-20T07:24:50;8.68;;;2.33;;
22144;SDS011;11238;48.730;11.566;2023-07-20T07:27:16;5.00;;;2.45;;
22144;SDS011;11238;48.730;11.566;2023-07-20T07:29:42;4.00;;;2.30;;
22144;SDS011;11238;48.730;11.566;2023-07-20T07:32:11;4.25;;;2.20;;
22144;SDS011;11238;48.730;11.566;2023-07-20T07:34:38;5.05;;;2.28;;
22144;SDS011;11238;48.730;11.566;2023-07-20T07:37:04;6.32;;;2.28;;
22144;SDS011;11238;48.730;11.566;2023-07-20T07:39:30;6.22;;;2.42;;
22144;SDS011;11238;48.730;11.566;2023-07-20T07:41:57;3.65;;;2.22;;
22144;SDS011;11238;48.730;11.566;2023-07-20T07:44:22;4.32;;;2.38;;
22144;SDS011;11238;48.730;11.566;2023-07-20T07:46:48;4.03;;;2.42;;
22144;SDS011;11238;48.730;11.566;2023-07-20T07:49:16;9.18;;;2.65;;
22144;SDS011;11238;48.730;11.566;2023-07-20T07:51:42;5.10;;;2.65;;
22144;SDS011;11238;48.730;11.566;2023-07-20T07:54:08;5.28;;;2.70;;
22144;SDS011;11238;48.730;11.566;2023-07-20T07:56:33;4.63;;;2.13;;
22144;SDS011;11238;48.730;11.566;2023-07-20T07:58:59;9.38;;;2.25;;
22144;SDS011;11238;48.730;11.566;2023-07-20T08:01:25;6.30;;;2.10;;
22144;SDS011;11238;48.730;11.566;2023-07-20T08:03:51;8.68;;;2.40;;
22144;SDS011;11238;48.730;11.566;2023-07-20T08:06:23;5.03;;;2.33;;
22144;SDS011;11238;48.730;11.566;2023-07-20T08:08:56;8.18;;;2.13;;
22144;SDS011;11238;48.730;11.566;2023-07-20T08:11:23;9.30;;;2.33;;
22144;SDS011;11238;48.730;11.566;2023-07-20T08:13:59;4.03;;;2.58;;
22144;SDS011;11238;48.730;11.566;2023-07-20T08:16:33;6.80;;;2.40;;
22144;SDS011;11238;48.730;11.566;2023-07-20T08:18:59;4.63;;;2.22;;
22144;SDS011;11238;48.730;11.566;2023-07-20T08:21:25;4.85;;;2.20;;
22144;SDS011;11238;48.730;11.566;2023-07-20T08:23:51;7.07;;;2.30;;
22144;SDS011;11238;48.730;11.566;2023-07-20T08:26:17;3.53;;;2.13;;
22144;SDS011;11238;48.730;11.566;2023-07-20T08:28:44;9.85;;;2.33;;
22144;SDS011;11238;48.730;11.566;2023-07-20T08:31:11;3.65;;;1.95;;
22144;SDS011;11238;48.730;11.566;2023-07-20T08:33:36;3.50;;;1.90;;
22144;SDS011;11238;48.730;11.566;2023-07-20T08:36:02;4.45;;;2.20;;
22144;SDS011;11238;48.730;11.566;2023-07-20T08:38:28;4.85;;;2.00;;
22144;SDS011;11238;48.730;11.566;2023-07-20T08:40:54;3.10;;;1.95;;
22144;SDS011;11238;48.730;11.566;2023-07-20T08:43:21;5.18;;;2.33;;
22144;SDS011;11238;48.730;11.566;2023-07-20T08:45:49;4.75;;;2.13;;
22144;SDS011;11238;48.730;11.566;2023-07-20T08:48:17;5.95;;;1.92;;
22144;SDS011;11238;48.730;11.566;2023-07-20T08:50:44;6.28;;;2.25;;
22144;SDS011;11238;48.730;11.566;2023-07-20T08:53:12;6.18;;;1.88;;
22144;SDS011;11238;48.730;11.566;2023-07-20T08:55:43;5.35;;;2.35;;
22144;SDS011;11238;48.730;11.566;2023-07-20T08:58:12;6.85;;;2.47;;
22144;SDS011;11238;48.730;11.566;2023-07-20T09:00:40;6.57;;;2.03;;
22144;SDS011;11238;48.730;11.566;2023-07-20T09:03:07;3.72;;;1.75;;
22144;SDS011;11238;48.730;11.566;2023-07-20T09:05:34;4.70;;;1.70;;
22144;SDS011;11238;48.730;11.566;2023-07-20T09:08:01;8.82;;;1.90;;
22144;SDS011;11238;48.730;11.566;2023-07-20T09:10:28;4.22;;;1.75;;
22144;SDS011;11238;48.730;11.566;2023-07-20T09:12:55;3.30;;;1.80;;
22144;SDS011;11238;48.730;11.566;2023-07-20T09:15:23;4.03;;;1.90;;
22144;SDS011;11238;48.730;11.566;2023-07-20T09:17:51;3.50;;;1.73;;
22144;SDS011;11238;48.730;11.566;2023-07-20T09:20:19;4.40;;;1.80;;
22144;SDS011;11238;48.730;11.566;2023-07-20T09:22:50;3.17;;;1.45;;
22144;SDS011;11238;48.730;11.566;2023-07-20T09:25:20;3.38;;;1.70;;
22144;SDS011;11238;48.730;11.566;2023-07-20T09:28:06;3.72;;;2.08;;
22144;SDS011;11238;48.730;11.566;2023-07-20T09:30:31;5.63;;;1.95;;
22144;SDS011;11238;48.730;11.566;2023-07-20T09:32:58;4.82;;;1.75;;
22144;SDS011;11238;48.730;11.566;2023-07-20T09:35:23;4.28;;;1.70;;
22144;SDS011;11238;48.730;11.566;2023-07-20T09:37:59;4.38;;;1.90;;
22144;SDS011;11238;48.730;11.566;2023-07-20T09:40:29;8.65;;;2.22;;
22144;SDS011;11238;48.730;11.566;2023-07-20T09:42:55;9.00;;;2.10;;
22144;SDS011;11238;48.730;11.566;2023-07-20T09:45:35;3.00;;;2.03;;
22144;SDS011;11238;48.730;11.566;2023-07-20T09:48:13;3.25;;;1.75;;
22144;SDS011;11238;48.730;11.566;2023-07-20T09:50:42;2.97;;;2.17;;
22144;SDS011;11238;48.730;11.566;2023-07-20T09:53:19;4.50;;;2.10;;
22144;SDS011;11238;48.730;11.566;2023-07-20T09:58:21;4.72;;;1.95;;
22144;SDS011;11238;48.730;11.566;2023-07-20T10:00:48;4.97;;;2.22;;
22144;SDS011;11238;48.730;11.566;2023-07-20T10:03:18;4.38;;;2.13;;
22144;SDS011;11238;48.730;11.566;2023-07-20T10:05:51;4.00;;;2.10;;
22144;SDS011;11238;48.730;11.566;2023-07-20T10:08:20;3.72;;;1.83;;
22144;SDS011;11238;48.730;11.566;2023-07-20T10:11:11;4.57;;;2.10;;
22144;SDS011;11238;48.730;11.566;2023-07-20T10:13:41;5.03;;;1.90;;
22144;SDS011;11238;48.730;11.566;2023-07-20T10:16:15;7.10;;;2.22;;
22144;SDS011;11238;48.730;11.566;2023-07-20T10:18:57;4.50;;;2.15;;
22144;SDS011;11238;48.730;11.566;2023-07-20T10:21:37;7.68;;;2.00;;
22144;SDS011;11238;48.730;11.566;2023-07-20T10:24:07;7.15;;;1.80;;
22144;SDS011;11238;48.730;11.566;2023-07-20T10:26:34;4.22;;;1.90;;
22144;SDS011;11238;48.730;11.566;2023-07-20T10:29:07;5.93;;;1.63;;
22144;SDS011;11238;48.730;11.566;2023-07-20T10:31:34;4.07;;;1.80;;
22144;SDS011;11238;48.730;11.566;2023-07-20T10:34:06;7.90;;;2.08;;
22144;SDS011;11238;48.730;11.566;2023-07-20T10:36:32;3.63;;;1.85;;
22144;SDS011;11238;48.730;11.566;2023-07-20T10:39:09;4.20;;;1.85;;
22144;SDS011;11238;48.730;11.566;2023-07-20T10:41:49;2.35;;;1.65;;
22144;SDS011;11238;48.730;11.566;2023-07-20T10:44:15;3.53;;;1.77;;
22144;SDS011;11238;48.730;11.566;2023-07-20T10:47:11;4.07;;;1.90;;
22144;SDS011;11238;48.730;11.566;2023-07-20T10:50:12;5.80;;;1.60;;
22144;SDS011;11238;48.730;11.566;2023-07-20T10:52:39;6.25;;;1.60;;
22144;SDS011;11238;48.730;11.566;2023-07-20T10:55:39;3.65;;;1.35;;
22144;SDS011;11238;48.730;11.566;2023-07-20T10:58:08;1.88;;;1.50;;
22144;SDS011;11238;48.730;11.566;2023-07-20T11:00:35;2.13;;;1.65;;
22144;SDS011;11238;48.730;11.566;2023-07-20T11:03:02;3.28;;;1.40;;
22144;SDS011;11238;48.730;11.566;2023-07-20T11:05:35;2.55;;;1.40;;
22144;SDS011;11238;48.730;11.566;2023-07-20T11:08:05;3.00;;;1.15;;
22144;SDS011;11238;48.730;11.566;2023-07-20T11:20:49;3.67;;;1.52;;
22144;SDS011;11238;48.730;11.566;2023-07-20T11:23:16;2.25;;;1.30;;
22144;SDS011;11238;48.730;11.566;2023-07-20T11:25:44;4.43;;;1.25;;
22144;SDS011;11238;48.730;11.566;2023-07-20T11:28:11;3.17;;;1.27;;
22144;SDS011;11238;48.730;11.566;2023-07-20T11:30:37;4.70;;;1.50;;
22144;SDS011;11238;48.730;11.566;2023-07-20T11:33:08;2.50;;;1.23;;
22144;SDS011;11238;48.730;11.566;2023-07-20T11:35:35;4.40;;;1.70;;
22144;SDS011;11238;48.730;11.566;2023-07-20T11:38:07;2.70;;;1.03;;
22144;SDS011;11238;48.730;11.566;2023-07-20T11:40:33;7.30;;;1.20;;
22144;SDS011;11238;48.730;11.566;2023-07-20T11:42:58;1.80;;;1.40;;
22144;SDS011;11238;48.730;11.566;2023-07-20T11:45:25;3.40;;;1.40;;
22144;SDS011;11238;48.730;11.566;2023-07-20T11:47:58;3.50;;;1.33;;
22144;SDS011;11238;48.730;11.566;2023-07-20T11:50:24;4.28;;;1.45;;
22144;SDS011;11238;48.730;11.566;2023-07-20T11:52:50;2.28;;;1.23;;
22144;SDS011;11238;48.730;11.566;2023-07-20T11:55:16;4.93;;;1.13;;
22144;SDS011;11238;48.730;11.566;2023-07-20T11:58:00;5.65;;;1.20;;
22144;SDS011;11238;48.730;11.566;2023-07-20T12:00:29;3.55;;;1.50;;
22144;SDS011;11238;48.730;11.566;2023-07-20T12:02:55;3.55;;;1.35;;
22144;SDS011;11238;48.730;11.566;2023-07-20T12:05:22;2.42;;;1.35;;
22144;SDS011;11238;48.730;11.566;2023-07-20T12:07:48;5.10;;;1.45;;
22144;SDS011;11238;48.730;11.566;2023-07-20T12:10:23;2.47;;;1.30;;
22144;SDS011;11238;48.730;11.566;2023-07-20T12:13:17;5.20;;;1.40;;
22144;SDS011;11238;48.730;11.566;2023-07-20T12:15:43;5.68;;;1.20;;
22144;SDS011;11238;48.730;11.566;2023-07-20T12:18:09;2.17;;;1.10;;
22144;SDS011;11238;48.730;11.566;2023-07-20T12:20:35;2.15;;;1.13;;
22144;SDS011;11238;48.730;11.566;2023-07-20T12:23:12;2.95;;;1.17;;
22144;SDS011;11238;48.730;11.566;2023-07-20T12:25:46;2.20;;;1.20;;
22144;SDS011;11238;48.730;11.566;2023-07-20T12:28:16;3.28;;;1.30;;
22144;SDS011;11238;48.730;11.566;2023-07-20T12:30:44;2.38;;;1.20;;
22144;SDS011;11238;48.730;11.566;2023-07-20T12:33:11;2.53;;;1.40;;
22144;SDS011;11238;48.730;11.566;2023-07-20T12:35:40;2.30;;;1.27;;
22144;SDS011;11238;48.730;11.566;2023-07-20T12:38:06;4.35;;;1.35;;
22144;SDS011;11238;48.730;11.566;2023-07-20T12:40:33;3.35;;;1.20;;
22144;SDS011;11238;48.730;11.566;2023-07-20T12:42:59;1.92;;;1.30;;
22144;SDS011;11238;48.730;11.566;2023-07-20T12:45:25;2.22;;;1.10;;
22144;SDS011;11238;48.730;11.566;2023-07-20T12:47:52;2.10;;;1.20;;
22144;SDS011;11238;48.730;11.566;2023-07-20T12:50:18;3.35;;;1.10;;
22144;SDS011;11238;48.730;11.566;2023-07-20T12:52:44;3.50;;;1.73;;
22144;SDS011;11238;48.730;11.566;2023-07-20T12:55:10;2.13;;;1.17;;
22144;SDS011;11238;48.730;11.566;2023-07-20T12:57:36;1.65;;;1.10;;
22144;SDS011;11238;48.730;11.566;2023-07-20T13:00:03;2.90;;;1.35;;
22144;SDS011;11238;48.730;11.566;2023-07-20T13:02:32;2.85;;;1.10;;
22144;SDS011;11238;48.730;11.566;2023-07-20T13:04:58;6.97;;;1.35;;
22144;SDS011;11238;48.730;11.566;2023-07-20T13:07:31;2.78;;;1.20;;
22144;SDS011;11238;48.730;11.566;2023-07-20T13:09:57;2.22;;;1.25;;
22144;SDS011;11238;48.730;11.566;2023-07-20T13:12:25;2.13;;;1.10;;
22144;SDS011;11238;48.730;11.566;2023-07-20T13:14:52;7.10;;;1.30;;
22144;SDS011;11238;48.730;11.566;2023-07-20T13:17:18;6.00;;;1.30;;
22144;SDS011;11238;48.730;11.566;2023-07-20T13:19:44;3.75;;;1.27;;
22144;SDS011;11238;48.730;11.566;2023-07-20T13:22:10;6.40;;;1.27;;
22144;SDS011;11238;48.730;11.566;2023-07-20T13:24:36;3.25;;;1.17;;
22144;SDS011;11238;48.730;11.566;2023-07-20T13:27:02;2.15;;;1.20;;
22144;SDS011;11238;48.730;11.566;2023-07-20T13:29:28;2.75;;;0.90;;
22144;SDS011;11238;48.730;11.566;2023-07-20T13:31:54;3.83;;;1.20;;
22144;SDS011;11238;48.730;11.566;2023-07-20T13:34:19;3.95;;;1.20;;
22144;SDS011;11238;48.730;11.566;2023-07-20T13:36:45;7.53;;;1.40;;
22144;SDS011;11238;48.730;11.566;2023-07-20T13:39:11;2.88;;;1.17;;
22144;SDS011;11238;48.730;11.566;2023-07-20T13:41:36;3.97;;;1.17;;
22144;SDS011;11238;48.730;11.566;2023-07-20T13:44:02;1.92;;;1.08;;
22144;SDS011;11238;48.730;11.566;2023-07-20T13:46:28;2.42;;;1.30;;
22144;SDS011;11238;48.730;11.566;2023-07-20T13:48:54;4.63;;;1.17;;
22144;SDS011;11238;48.730;11.566;2023-07-20T13:51:19;2.38;;;1.35;;
22144;SDS011;11238;48.730;11.566;2023-07-20T13:53:46;1.42;;;1.20;;
22144;SDS011;11238;48.730;11.566;2023-07-20T13:56:12;2.95;;;1.50;;
22144;SDS011;11238;48.730;11.566;2023-07-20T13:58:39;3.72;;;1.45;;
22144;SDS011;11238;48.730;11.566;2023-07-20T14:01:04;4.53;;;1.25;;
22144;SDS011;11238;48.730;11.566;2023-07-20T14:03:30;3.08;;;1.40;;
22144;SDS011;11238;48.730;11.566;2023-07-20T14:06:12;1.67;;;1.10;;
22144;SDS011;11238;48.730;11.566;2023-07-20T14:18:07;4.80;;;1.40;;
22144;SDS011;11238;48.730;11.566;2023-07-20T14:20:33;1.95;;;1.10;;
22144;SDS011;11238;48.730;11.566;2023-07-20T14:22:58;1.83;;;1.30;;
22144;SDS011;11238;48.730;11.566;2023-07-20T14:25:24;2.30;;;1.25;;
22144;SDS011;11238;48.730;11.566;2023-07-20T14:27:50;5.43;;;1.48;;
22144;SDS011;11238;48.730;11.566;2023-07-20T14:30:16;3.78;;;1.35;;
22144;SDS011;11238;48.730;11.566;2023-07-20T14:32:41;7.15;;;1.40;;
22144;SDS011;11238;48.730;11.566;2023-07-20T14:35:08;3.10;;;1.30;;
22144;SDS011;11238;48.730;11.566;2023-07-20T14:37:34;4.05;;;1.50;;
22144;SDS011;11238;48.730;11.566;2023-07-20T14:40:00;3.78;;;1.52;;
22144;SDS011;11238;48.730;11.566;2023-07-20T14:42:26;4.63;;;1.40;;
22144;SDS011;11238;48.730;11.566;2023-07-20T14:44:52;7.00;;;1.50;;
22144;SDS011;11238;48.730;11.566;2023-07-20T14:47:18;5.80;;;1.70;;
22144;SDS011;11238;48.730;11.566;2023-07-20T14:49:44;2.20;;;1.35;;
22144;SDS011;11238;48.730;11.566;2023-07-20T14:52:10;2.72;;;1.30;;
22144;SDS011;11238;48.730;11.566;2023-07-20T14:54:37;3.10;;;1.40;;
22144;SDS011;11238;48.730;11.566;2023-07-20T14:57:03;4.40;;;1.38;;
22144;SDS011;11238;48.730;11.566;2023-07-20T14:59:30;3.35;;;1.30;;
22144;SDS011;11238;48.730;11.566;2023-07-20T15:01:56;1.50;;;1.30;;
22144;SDS011;11238;48.730;11.566;2023-07-20T15:04:21;4.60;;;1.40;;
22144;SDS011;11238;48.730;11.566;2023-07-20T15:06:47;4.35;;;1.40;;